sensor_id;sensor_type;location;lat;lon;timestamp;pressure;altitude;pressure_sealevel;temperature;humidity
40490;BME280;26196;52.302;10.572;2023-08-17T00:03:28;101026.97;;;24.11;52.69
40490;BME280;26196;52.302;10.572;2023-08-17T00:07:29;101017.09;;;24.11;52.67
40490;BME280;26196;52.302;10.572;2023-08-17T00:11:30;101005.56;;;24.11;52.62
40490;BME280;26196;52.302;10.572;2023-08-17T00:15:31;100998.03;;;24.05;53.09
40490;BME280;26196;52.302;10.572;2023-08-17T00:19:32;101007.28;;;24.12;52.83
40490;BME280;26196;52.302;10.572;2023-08-17T00:23:32;101012.84;;;24.09;52.58
40490;BME280;26196;52.302;10.572;2023-08-17T00:27:33;101012.00;;;24.08;53.08
40490;BME280;26196;52.302;10.572;2023-08-17T00:31:41;100998.53;;;24.10;52.73
40490;BME280;26196;52.302;10.572;2023-08-17T00:35:41;101000.22;;;24.11;52.84
40490;BME280;26196;52.302;10.572;2023-08-17T00:39:42;100972.47;;;24.00;52.85
40490;BME280;26196;52.302;10.572;2023-08-17T00:43:43;100987.81;;;24.10;52.84
40490;BME280;26196;52.302;10.572;2023-08-17T00:47:43;100981.22;;;24.02;52.91
40490;BME280;26196;52.302;10.572;2023-08-17T00:51:44;100982.31;;;24.00;53.13
40490;BME280;26196;52.302;10.572;2023-08-17T00:55:44;100994.59;;;24.02;53.39
40490;BME280;26196;52.302;10.572;2023-08-17T00:59:46;100987.56;;;24.01;53.94
40490;BME280;26196;52.302;10.572;2023-08-17T01:03:46;100987.31;;;24.05;53.65
40490;BME280;26196;52.302;10.572;2023-08-17T01:07:46;100980.63;;;23.99;53.38
40490;BME280;26196;52.302;10.572;2023-08-17T01:12:00;100980.25;;;24.03;53.19
40490;BME280;26196;52.302;10.572;2023-08-17T01:16:03;100985.59;;;24.03;53.88
40490;BME280;26196;52.302;10.572;2023-08-17T01:20:08;100977.56;;;24.03;53.93
40490;BME280;26196;52.302;10.572;2023-08-17T01:24:11;100985.59;;;24.03;53.57
40490;BME280;26196;52.302;10.572;2023-08-17T01:28:14;100994.00;;;23.99;53.81
40490;BME280;26196;52.302;10.572;2023-08-17T01:32:24;100999.84;;;24.04;53.41
40490;BME280;26196;52.302;10.572;2023-08-17T01:36:32;100984.38;;;23.96;53.50
40490;BME280;26196;52.302;10.572;2023-08-17T01:40:33;100995.69;;;24.00;53.17
40490;BME280;26196;52.302;10.572;2023-08-17T01:44:34;101016.47;;;23.96;53.45
40490;BME280;26196;52.302;10.572;2023-08-17T01:48:34;101049.31;;;23.98;53.29
40490;BME280;26196;52.302;10.572;2023-08-17T01:52:35;101055.72;;;23.96;53.42
40490;BME280;26196;52.302;10.572;2023-08-17T01:56:35;101065.56;;;23.95;53.34
40490;BME280;26196;52.302;10.572;2023-08-17T02:00:35;101069.31;;;23.93;54.15
40490;BME280;26196;52.302;10.572;2023-08-17T02:04:36;101048.91;;;23.92;54.15
40490;BME280;26196;52.302;10.572;2023-08-17T02:08:38;101042.47;;;23.94;53.86
40490;BME280;26196;52.302;10.572;2023-08-17T02:12:39;101044.53;;;23.91;54.25
40490;BME280;26196;52.302;10.572;2023-08-17T02:16:39;101034.53;;;23.93;53.77
40490;BME280;26196;52.302;10.572;2023-08-17T02:20:40;101023.34;;;23.88;53.69
40490;BME280;26196;52.302;10.572;2023-08-17T02:24:40;101019.06;;;23.85;53.78
40490;BME280;26196;52.302;10.572;2023-08-17T02:28:41;101007.44;;;23.86;53.62
40490;BME280;26196;52.302;10.572;2023-08-17T02:32:41;100997.50;;;23.88;53.71
40490;BME280;26196;52.302;10.572;2023-08-17T02:36:41;100995.75;;;23.87;53.71
40490;BME280;26196;52.302;10.572;2023-08-17T02:40:42;100989.34;;;23.90;53.46
40490;BME280;26196;52.302;10.572;2023-08-17T02:44:42;100987.63;;;23.89;53.39
40490;BME280;26196;52.302;10.572;2023-08-17T02:48:42;100975.34;;;23.86;53.52
40490;BME280;26196;52.302;10.572;2023-08-17T02:52:44;100965.63;;;23.85;53.60
40490;BME280;26196;52.302;10.572;2023-08-17T02:56:44;100956.13;;;23.81;53.60
40490;BME280;26196;52.302;10.572;2023-08-17T03:00:44;100955.06;;;23.84;53.50
40490;BME280;26196;52.302;10.572;2023-08-17T03:04:45;100965.50;;;23.87;54.16
40490;BME280;26196;52.302;10.572;2023-08-17T03:08:45;100945.22;;;23.84;54.97
40490;BME280;26196;52.302;10.572;2023-08-17T03:12:46;100935.19;;;23.75;55.92
40490;BME280;26196;52.302;10.572;2023-08-17T03:16:47;100935.69;;;23.80;56.20
40490;BME280;26196;52.302;10.572;2023-08-17T03:20:47;100939.47;;;23.77;56.55
40490;BME280;26196;52.302;10.572;2023-08-17T03:24:48;100943.00;;;23.78;56.17
40490;BME280;26196;52.302;10.572;2023-08-17T03:28:48;100943.50;;;23.83;56.96
40490;BME280;26196;52.302;10.572;2023-08-17T03:32:48;100932.19;;;23.79;57.00
40490;BME280;26196;52.302;10.572;2023-08-17T03:36:49;100930.59;;;23.77;57.04
40490;BME280;26196;52.302;10.572;2023-08-17T03:40:50;100939.34;;;23.79;56.97
40490;BME280;26196;52.302;10.572;2023-08-17T03:44:50;100922.81;;;23.74;56.84
40490;BME280;26196;52.302;10.572;2023-08-17T03:48:51;100942.50;;;23.73;58.28
40490;BME280;26196;52.302;10.572;2023-08-17T03:52:52;100947.91;;;23.71;58.96
40490;BME280;26196;52.302;10.572;2023-08-17T03:56:52;100945.78;;;23.76;58.38
40490;BME280;26196;52.302;10.572;2023-08-17T04:01:01;100949.66;;;23.72;58.87
40490;BME280;26196;52.302;10.572;2023-08-17T04:05:03;100949.53;;;23.74;59.02
40490;BME280;26196;52.302;10.572;2023-08-17T04:09:03;100950.28;;;23.76;59.04
40490;BME280;26196;52.302;10.572;2023-08-17T04:13:04;100949.31;;;23.77;58.23
40490;BME280;26196;52.302;10.572;2023-08-17T04:17:04;100946.97;;;23.72;59.13
40490;BME280;26196;52.302;10.572;2023-08-17T04:21:05;100947.56;;;23.65;58.79
40490;BME280;26196;52.302;10.572;2023-08-17T04:25:05;100950.53;;;23.73;58.90
40490;BME280;26196;52.302;10.572;2023-08-17T04:29:07;100960.44;;;23.71;59.01
40490;BME280;26196;52.302;10.572;2023-08-17T04:33:07;100956.06;;;23.70;59.16
40490;BME280;26196;52.302;10.572;2023-08-17T04:37:08;100955.34;;;23.68;58.94
40490;BME280;26196;52.302;10.572;2023-08-17T04:41:08;100942.06;;;23.66;58.80
40490;BME280;26196;52.302;10.572;2023-08-17T04:45:09;100953.41;;;23.70;57.81
40490;BME280;26196;52.302;10.572;2023-08-17T04:49:09;100957.47;;;23.75;57.09
40490;BME280;26196;52.302;10.572;2023-08-17T04:53:09;100950.72;;;23.70;57.09
40490;BME280;26196;52.302;10.572;2023-08-17T04:57:10;100958.75;;;23.70;56.85
40490;BME280;26196;52.302;10.572;2023-08-17T05:01:10;100960.53;;;23.69;56.53
40490;BME280;26196;52.302;10.572;2023-08-17T05:05:11;100958.53;;;23.73;56.73
40490;BME280;26196;52.302;10.572;2023-08-17T05:09:11;100958.00;;;23.68;56.72
40490;BME280;26196;52.302;10.572;2023-08-17T05:13:11;100954.69;;;23.64;56.21
40490;BME280;26196;52.302;10.572;2023-08-17T05:17:12;100962.06;;;23.73;56.16
40490;BME280;26196;52.302;10.572;2023-08-17T05:21:12;100962.16;;;23.72;56.87
40490;BME280;26196;52.302;10.572;2023-08-17T05:25:13;100946.56;;;23.66;56.21
40490;BME280;26196;52.302;10.572;2023-08-17T05:29:13;100953.84;;;23.64;56.39
40490;BME280;26196;52.302;10.572;2023-08-17T05:33:13;100971.13;;;23.71;56.11
40490;BME280;26196;52.302;10.572;2023-08-17T05:37:13;100966.13;;;23.66;56.56
40490;BME280;26196;52.302;10.572;2023-08-17T05:41:15;100972.22;;;23.68;56.68
40490;BME280;26196;52.302;10.572;2023-08-17T05:45:17;100973.81;;;23.71;56.33
40490;BME280;26196;52.302;10.572;2023-08-17T05:49:17;100977.56;;;23.68;56.36
40490;BME280;26196;52.302;10.572;2023-08-17T05:53:18;100983.75;;;23.69;56.19
40490;BME280;26196;52.302;10.572;2023-08-17T05:57:18;100978.41;;;23.69;56.18
40490;BME280;26196;52.302;10.572;2023-08-17T06:01:19;100974.88;;;23.68;55.87
40490;BME280;26196;52.302;10.572;2023-08-17T06:05:19;100975.00;;;23.67;56.01
40490;BME280;26196;52.302;10.572;2023-08-17T06:09:19;100979.63;;;23.65;56.34
40490;BME280;26196;52.302;10.572;2023-08-17T06:13:20;100978.63;;;23.66;56.36
40490;BME280;26196;52.302;10.572;2023-08-17T06:17:20;100968.06;;;23.64;56.28
40490;BME280;26196;52.302;10.572;2023-08-17T06:21:20;100977.56;;;23.68;56.27
40490;BME280;26196;52.302;10.572;2023-08-17T06:25:20;100975.00;;;23.67;56.04
40490;BME280;26196;52.302;10.572;2023-08-17T06:29:21;100982.28;;;23.65;55.94
40490;BME280;26196;52.302;10.572;2023-08-17T06:33:22;100990.41;;;23.63;56.31
40490;BME280;26196;52.302;10.572;2023-08-17T06:37:22;100989.56;;;23.63;56.35
40490;BME280;26196;52.302;10.572;2023-08-17T06:41:23;100984.31;;;23.61;56.24
40490;BME280;26196;52.302;10.572;2023-08-17T06:45:24;100994.91;;;23.63;56.00
40490;BME280;26196;52.302;10.572;2023-08-17T06:49:26;100994.91;;;23.63;56.05
40490;BME280;26196;52.302;10.572;2023-08-17T06:53:27;100993.19;;;23.62;56.29
40490;BME280;26196;52.302;10.572;2023-08-17T06:57:27;100997.06;;;23.57;56.15
40490;BME280;26196;52.302;10.572;2023-08-17T07:01:29;100985.63;;;23.55;55.86
40490;BME280;26196;52.302;10.572;2023-08-17T07:05:29;100983.19;;;23.52;55.89
40490;BME280;26196;52.302;10.572;2023-08-17T07:09:29;100992.06;;;23.53;56.16
40490;BME280;26196;52.302;10.572;2023-08-17T07:13:30;100993.41;;;23.58;56.21
40490;BME280;26196;52.302;10.572;2023-08-17T07:17:30;101004.09;;;23.58;55.96
40490;BME280;26196;52.302;10.572;2023-08-17T07:21:30;100989.72;;;23.48;56.00
40490;BME280;26196;52.302;10.572;2023-08-17T07:25:31;101003.34;;;23.56;56.01
40490;BME280;26196;52.302;10.572;2023-08-17T07:29:32;101000.31;;;23.50;56.57
40490;BME280;26196;52.302;10.572;2023-08-17T07:33:32;101004.66;;;23.51;57.41
40490;BME280;26196;52.302;10.572;2023-08-17T07:37:33;101011.22;;;23.47;57.79
40490;BME280;26196;52.302;10.572;2023-08-17T07:41:33;101013.75;;;23.48;58.06
40490;BME280;26196;52.302;10.572;2023-08-17T07:45:33;100995.56;;;23.29;58.74
40490;BME280;26196;52.302;10.572;2023-08-17T07:49:34;101009.97;;;23.40;58.62
40490;BME280;26196;52.302;10.572;2023-08-17T07:53:34;100999.59;;;23.35;58.59
40490;BME280;26196;52.302;10.572;2023-08-17T07:57:35;101002.19;;;23.36;58.35
40490;BME280;26196;52.302;10.572;2023-08-17T08:01:35;101010.50;;;23.32;59.04
40490;BME280;26196;52.302;10.572;2023-08-17T08:05:35;101007.38;;;23.38;59.16
40490;BME280;26196;52.302;10.572;2023-08-17T08:09:36;101010.28;;;23.35;58.73
40490;BME280;26196;52.302;10.572;2023-08-17T08:13:37;101013.94;;;23.34;58.80
40490;BME280;26196;52.302;10.572;2023-08-17T08:17:38;101015.53;;;23.36;58.91
40490;BME280;26196;52.302;10.572;2023-08-17T08:25:38;101014.88;;;23.33;59.45
40490;BME280;26196;52.302;10.572;2023-08-17T08:29:39;101022.91;;;23.33;58.85
40490;BME280;26196;52.302;10.572;2023-08-17T08:33:39;101016.59;;;23.34;59.22
40490;BME280;26196;52.302;10.572;2023-08-17T08:37:40;101026.31;;;23.35;58.95
40490;BME280;26196;52.302;10.572;2023-08-17T08:41:40;101017.44;;;23.34;58.98
40490;BME280;26196;52.302;10.572;2023-08-17T08:45:45;101019.59;;;23.29;59.61
40490;BME280;26196;52.302;10.572;2023-08-17T08:49:58;101017.91;;;23.28;59.70
40490;BME280;26196;52.302;10.572;2023-08-17T08:54:03;101016.84;;;23.31;59.64
40490;BME280;26196;52.302;10.572;2023-08-17T08:58:06;101003.16;;;23.23;59.96
40490;BME280;26196;52.302;10.572;2023-08-17T09:02:07;101005.09;;;23.21;59.80
40490;BME280;26196;52.302;10.572;2023-08-17T09:06:09;101012.16;;;23.22;59.97
40490;BME280;26196;52.302;10.572;2023-08-17T09:10:11;101010.66;;;23.18;60.15
40490;BME280;26196;52.302;10.572;2023-08-17T09:14:17;101004.03;;;23.23;60.02
40490;BME280;26196;52.302;10.572;2023-08-17T09:18:18;101008.50;;;23.23;60.10
40490;BME280;26196;52.302;10.572;2023-08-17T09:22:36;101010.09;;;23.25;59.84
40490;BME280;26196;52.302;10.572;2023-08-17T09:26:38;101014.06;;;23.20;59.83
40490;BME280;26196;52.302;10.572;2023-08-17T09:35:01;100994.97;;;23.13;60.01
40490;BME280;26196;52.302;10.572;2023-08-17T09:39:02;101006.91;;;23.20;59.94
40490;BME280;26196;52.302;10.572;2023-08-17T09:43:10;100996.56;;;23.15;59.75
40490;BME280;26196;52.302;10.572;2023-08-17T09:47:10;101007.66;;;23.22;59.78
40490;BME280;26196;52.302;10.572;2023-08-17T09:51:14;101002.75;;;23.16;59.95
40490;BME280;26196;52.302;10.572;2023-08-17T09:55:15;101000.88;;;23.05;60.12
40490;BME280;26196;52.302;10.572;2023-08-17T09:59:15;101008.56;;;23.10;59.86
40490;BME280;26196;52.302;10.572;2023-08-17T10:03:18;101015.59;;;23.11;59.91
40490;BME280;26196;52.302;10.572;2023-08-17T10:07:20;101002.69;;;23.05;59.78
40490;BME280;26196;52.302;10.572;2023-08-17T10:11:23;100989.97;;;22.96;59.29
40490;BME280;26196;52.302;10.572;2023-08-17T10:15:25;100996.94;;;22.98;59.58
40490;BME280;26196;52.302;10.572;2023-08-17T10:19:37;101015.16;;;23.04;59.61
40490;BME280;26196;52.302;10.572;2023-08-17T10:23:44;101015.16;;;23.04;59.55
40490;BME280;26196;52.302;10.572;2023-08-17T10:27:47;101014.31;;;23.04;59.33
40490;BME280;26196;52.302;10.572;2023-08-17T10:31:50;101016.47;;;22.99;59.39
40490;BME280;26196;52.302;10.572;2023-08-17T10:35:51;101005.56;;;22.89;59.15
40490;BME280;26196;52.302;10.572;2023-08-17T10:39:52;100998.22;;;22.80;59.25
40490;BME280;26196;52.302;10.572;2023-08-17T10:43:57;101011.09;;;22.86;59.23
40490;BME280;26196;52.302;10.572;2023-08-17T10:48:27;101019.88;;;22.88;58.95
40490;BME280;26196;52.302;10.572;2023-08-17T10:56:30;101011.09;;;22.86;58.88
40490;BME280;26196;52.302;10.572;2023-08-17T11:00:35;101014.22;;;22.80;58.83
40490;BME280;26196;52.302;10.572;2023-08-17T11:04:36;101007.81;;;22.82;58.86
40490;BME280;26196;52.302;10.572;2023-08-17T11:08:54;101000.25;;;22.76;58.59
40490;BME280;26196;52.302;10.572;2023-08-17T11:12:58;101001.19;;;22.75;58.88
40490;BME280;26196;52.302;10.572;2023-08-17T11:17:02;101010.94;;;22.76;58.81
40490;BME280;26196;52.302;10.572;2023-08-17T11:21:05;101013.47;;;22.78;58.65
40490;BME280;26196;52.302;10.572;2023-08-17T11:25:06;101012.72;;;22.76;58.75
40490;BME280;26196;52.302;10.572;2023-08-17T11:29:07;101025.88;;;22.79;58.81
40490;BME280;26196;52.302;10.572;2023-08-17T11:33:08;101024.16;;;22.78;58.75
40490;BME280;26196;52.302;10.572;2023-08-17T11:37:11;101028.00;;;22.74;58.59
40490;BME280;26196;52.302;10.572;2023-08-17T11:41:11;101019.47;;;22.68;58.80
40490;BME280;26196;52.302;10.572;2023-08-17T11:45:13;101021.16;;;22.69;59.02
40490;BME280;26196;52.302;10.572;2023-08-17T11:49:14;100997.81;;;22.60;58.94
40490;BME280;26196;52.302;10.572;2023-08-17T11:53:14;101028.00;;;22.74;59.20
40490;BME280;26196;52.302;10.572;2023-08-17T11:57:15;101016.66;;;22.70;59.32
40490;BME280;26196;52.302;10.572;2023-08-17T12:01:15;100995.31;;;22.57;59.13
40490;BME280;26196;52.302;10.572;2023-08-17T12:05:23;101015.38;;;22.63;59.61
40490;BME280;26196;52.302;10.572;2023-08-17T12:09:25;101012.63;;;22.64;59.84
40490;BME280;26196;52.302;10.572;2023-08-17T12:13:33;101015.72;;;22.71;60.14
40490;BME280;26196;52.302;10.572;2023-08-17T12:17:34;101019.25;;;22.71;60.58
40490;BME280;26196;52.302;10.572;2023-08-17T12:21:35;101023.53;;;22.74;61.07
40490;BME280;26196;52.302;10.572;2023-08-17T12:25:37;101013.91;;;22.71;61.03
40490;BME280;26196;52.302;10.572;2023-08-17T12:29:48;101009.31;;;22.74;60.73
40490;BME280;26196;52.302;10.572;2023-08-17T12:33:51;101010.50;;;22.69;60.37
40490;BME280;26196;52.302;10.572;2023-08-17T12:37:52;101012.19;;;22.70;60.17
40490;BME280;26196;52.302;10.572;2023-08-17T12:41:53;101006.22;;;22.67;60.18
40490;BME280;26196;52.302;10.572;2023-08-17T12:45:55;101014.97;;;22.69;60.31
40490;BME280;26196;52.302;10.572;2023-08-17T12:49:55;101007.59;;;22.72;60.16
40490;BME280;26196;52.302;10.572;2023-08-17T12:53:55;100998.97;;;22.69;60.17
40490;BME280;26196;52.302;10.572;2023-08-17T12:57:56;101006.22;;;22.67;60.45
40490;BME280;26196;52.302;10.572;2023-08-17T13:01:56;101004.94;;;22.72;60.45
40490;BME280;26196;52.302;10.572;2023-08-17T13:05:57;101007.91;;;22.68;60.52
40490;BME280;26196;52.302;10.572;2023-08-17T13:09:57;101003.78;;;22.64;60.45
40490;BME280;26196;52.302;10.572;2023-08-17T13:13:59;101002.81;;;22.65;60.25
40490;BME280;26196;52.302;10.572;2023-08-17T13:17:59;101012.41;;;22.67;60.23
40490;BME280;26196;52.302;10.572;2023-08-17T13:22:01;101005.38;;;22.66;60.22
40490;BME280;26196;52.302;10.572;2023-08-17T13:26:02;101005.91;;;22.71;60.17
40490;BME280;26196;52.302;10.572;2023-08-17T13:30:05;101010.50;;;22.69;60.22
40490;BME280;26196;52.302;10.572;2023-08-17T13:34:06;101003.56;;;22.67;60.00
40490;BME280;26196;52.302;10.572;2023-08-17T13:38:06;101008.66;;;22.70;60.05
40490;BME280;26196;52.302;10.572;2023-08-17T13:42:07;101007.72;;;22.71;59.99
40490;BME280;26196;52.302;10.572;2023-08-17T13:46:07;100990.75;;;22.59;60.32
40490;BME280;26196;52.302;10.572;2023-08-17T13:50:08;101008.13;;;22.65;60.09
40490;BME280;26196;52.302;10.572;2023-08-17T13:54:08;101008.88;;;22.67;60.05
40490;BME280;26196;52.302;10.572;2023-08-17T13:58:09;100993.41;;;22.59;60.21
40490;BME280;26196;52.302;10.572;2023-08-17T14:02:11;100996.00;;;22.61;60.53
40490;BME280;26196;52.302;10.572;2023-08-17T14:06:11;100998.75;;;22.59;60.32
40490;BME280;26196;52.302;10.572;2023-08-17T14:10:13;100994.25;;;22.60;60.74
40490;BME280;26196;52.302;10.572;2023-08-17T14:14:14;100985.31;;;22.61;60.23
40490;BME280;26196;52.302;10.572;2023-08-17T14:18:16;100984.78;;;22.56;60.40
40490;BME280;26196;52.302;10.572;2023-08-17T14:22:17;100987.00;;;22.62;60.49
40490;BME280;26196;52.302;10.572;2023-08-17T14:26:17;100972.69;;;22.63;60.31
40490;BME280;26196;52.302;10.572;2023-08-17T14:30:18;100978.38;;;22.58;60.55
40490;BME280;26196;52.302;10.572;2023-08-17T14:34:18;100986.16;;;22.61;60.39
40490;BME280;26196;52.302;10.572;2023-08-17T14:38:19;100983.59;;;22.60;60.33
40490;BME280;26196;52.302;10.572;2023-08-17T14:42:19;100976.13;;;22.52;60.60
40490;BME280;26196;52.302;10.572;2023-08-17T14:46:20;100980.72;;;22.50;60.54
40490;BME280;26196;52.302;10.572;2023-08-17T14:50:20;100981.28;;;22.55;60.74
40490;BME280;26196;52.302;10.572;2023-08-17T14:54:20;100991.59;;;22.60;60.63
40490;BME280;26196;52.302;10.572;2023-08-17T14:58:21;100984.47;;;22.60;60.59
40490;BME280;26196;52.302;10.572;2023-08-17T15:02:21;100985.94;;;22.64;60.36
40490;BME280;26196;52.302;10.572;2023-08-17T15:06:22;100974.75;;;22.59;60.53
40490;BME280;26196;52.302;10.572;2023-08-17T15:10:24;100977.41;;;22.59;60.77
40490;BME280;26196;52.302;10.572;2023-08-17T15:14:30;100977.63;;;22.56;60.41
40490;BME280;26196;52.302;10.572;2023-08-17T15:18:31;100975.72;;;22.58;60.39
40490;BME280;26196;52.302;10.572;2023-08-17T15:22:31;100977.84;;;22.53;60.68
40490;BME280;26196;52.302;10.572;2023-08-17T15:26:31;100979.53;;;22.54;60.95
40490;BME280;26196;52.302;10.572;2023-08-17T15:30:32;100984.34;;;22.49;60.98
40490;BME280;26196;52.302;10.572;2023-08-17T15:34:32;100995.53;;;22.54;60.88
40490;BME280;26196;52.302;10.572;2023-08-17T15:38:32;100995.44;;;22.56;60.84
40490;BME280;26196;52.302;10.572;2023-08-17T15:42:33;100988.50;;;22.53;60.68
40490;BME280;26196;52.302;10.572;2023-08-17T15:46:33;100992.78;;;22.56;60.71
40490;BME280;26196;52.302;10.572;2023-08-17T15:50:34;100978.91;;;22.50;60.87
40490;BME280;26196;52.302;10.572;2023-08-17T15:54:34;100968.56;;;22.46;60.91
40490;BME280;26196;52.302;10.572;2023-08-17T15:58:36;100978.91;;;22.50;61.18
40490;BME280;26196;52.302;10.572;2023-08-17T16:02:38;100972.91;;;22.47;60.94
40490;BME280;26196;52.302;10.572;2023-08-17T16:06:45;100959.50;;;22.48;61.29
40490;BME280;26196;52.302;10.572;2023-08-17T16:10:45;100956.91;;;22.47;61.15
40490;BME280;26196;52.302;10.572;2023-08-17T16:14:46;100963.44;;;22.43;61.27
40490;BME280;26196;52.302;10.572;2023-08-17T16:18:47;100956.19;;;22.45;61.36
40490;BME280;26196;52.302;10.572;2023-08-17T16:22:47;100957.56;;;22.38;61.50
40490;BME280;26196;52.302;10.572;2023-08-17T16:26:48;100969.72;;;22.42;61.33
40490;BME280;26196;52.302;10.572;2023-08-17T16:30:48;100972.81;;;22.48;61.46
40490;BME280;26196;52.302;10.572;2023-08-17T16:34:49;100974.88;;;22.45;61.58
40490;BME280;26196;52.302;10.572;2023-08-17T16:38:50;100965.44;;;22.39;61.51
40490;BME280;26196;52.302;10.572;2023-08-17T16:42:51;100976.56;;;22.46;61.43
40490;BME280;26196;52.302;10.572;2023-08-17T16:46:51;100962.91;;;22.38;61.47
40490;BME280;26196;52.302;10.572;2023-08-17T16:50:52;100971.31;;;22.44;61.31
40490;BME280;26196;52.302;10.572;2023-08-17T16:54:53;100976.66;;;22.44;61.62
40490;BME280;26196;52.302;10.572;2023-08-17T16:58:54;100962.78;;;22.39;61.84
40490;BME280;26196;52.302;10.572;2023-08-17T17:02:54;100980.38;;;22.42;62.00
40490;BME280;26196;52.302;10.572;2023-08-17T17:06:54;100978.47;;;22.44;62.17
40490;BME280;26196;52.302;10.572;2023-08-17T17:10:55;100967.41;;;22.37;62.21
40490;BME280;26196;52.302;10.572;2023-08-17T17:15:01;100977.63;;;22.43;62.03
40490;BME280;26196;52.302;10.572;2023-08-17T17:19:01;100988.91;;;22.47;62.22
40490;BME280;26196;52.302;10.572;2023-08-17T17:23:08;100982.00;;;22.44;62.10
40490;BME280;26196;52.302;10.572;2023-08-17T17:27:08;100989.69;;;22.49;61.89
40490;BME280;26196;52.302;10.572;2023-08-17T17:31:08;100974.97;;;22.43;61.78
40490;BME280;26196;52.302;10.572;2023-08-17T17:35:09;100983.28;;;22.52;62.26
40490;BME280;26196;52.302;10.572;2023-08-17T17:39:10;100989.91;;;22.46;62.11
40490;BME280;26196;52.302;10.572;2023-08-17T17:43:10;100998.53;;;22.49;62.18
40490;BME280;26196;52.302;10.572;2023-08-17T17:47:12;100981.03;;;22.45;62.15
40490;BME280;26196;52.302;10.572;2023-08-17T17:51:13;100977.41;;;22.46;62.36
40490;BME280;26196;52.302;10.572;2023-08-17T17:55:13;100974.00;;;22.44;62.30
40490;BME280;26196;52.302;10.572;2023-08-17T17:59:13;100987.84;;;22.49;62.08
40490;BME280;26196;52.302;10.572;2023-08-17T18:03:15;100993.53;;;22.45;62.38
40490;BME280;26196;52.302;10.572;2023-08-17T18:07:17;100979.75;;;22.38;61.98
40490;BME280;26196;52.302;10.572;2023-08-17T18:11:18;100981.03;;;22.45;62.19
40490;BME280;26196;52.302;10.572;2023-08-17T18:15:20;100988.06;;;22.46;62.37
40490;BME280;26196;52.302;10.572;2023-08-17T18:19:21;100978.06;;;22.37;62.26
40490;BME280;26196;52.302;10.572;2023-08-17T18:23:21;101002.38;;;22.45;62.45
40490;BME280;26196;52.302;10.572;2023-08-17T18:27:22;100977.53;;;22.32;62.13
40490;BME280;26196;52.302;10.572;2023-08-17T18:31:23;101003.16;;;22.47;62.07
40490;BME280;26196;52.302;10.572;2023-08-17T18:35:23;100997.28;;;22.42;61.88
40490;BME280;26196;52.302;10.572;2023-08-17T18:39:25;100999.06;;;22.42;62.07
40490;BME280;26196;52.302;10.572;2023-08-17T18:43:28;100984.47;;;22.35;61.83
40490;BME280;26196;52.302;10.572;2023-08-17T18:47:28;100988.06;;;22.34;62.03
40490;BME280;26196;52.302;10.572;2023-08-17T18:51:29;100996.59;;;22.39;62.42
40490;BME280;26196;52.302;10.572;2023-08-17T18:55:29;101003.75;;;22.38;62.20
40490;BME280;26196;52.302;10.572;2023-08-17T18:59:31;100986.16;;;22.36;62.17
40490;BME280;26196;52.302;10.572;2023-08-17T19:03:31;100994.38;;;22.33;62.47
40490;BME280;26196;52.302;10.572;2023-08-17T19:07:37;101015.81;;;22.44;62.31
40490;BME280;26196;52.302;10.572;2023-08-17T19:11:37;101014.34;;;22.40;62.48
40490;BME280;26196;52.302;10.572;2023-08-17T19:15:38;101011.75;;;22.38;62.56
40490;BME280;26196;52.302;10.572;2023-08-17T19:19:40;101001.72;;;22.42;62.25
40490;BME280;26196;52.302;10.572;2023-08-17T19:23:41;101005.38;;;22.41;62.29
40490;BME280;26196;52.302;10.572;2023-08-17T19:27:41;100996.81;;;22.36;62.15
40490;BME280;26196;52.302;10.572;2023-08-17T19:31:46;101004.72;;;22.37;62.18
40490;BME280;26196;52.302;10.572;2023-08-17T19:35:46;101015.41;;;22.37;62.21
40490;BME280;26196;52.302;10.572;2023-08-17T19:39:47;101021.38;;;22.41;62.32
40490;BME280;26196;52.302;10.572;2023-08-17T19:43:47;101006.66;;;22.35;62.17
40490;BME280;26196;52.302;10.572;2023-08-17T19:47:47;100990.41;;;22.25;61.99
40490;BME280;26196;52.302;10.572;2023-08-17T19:51:47;101013.03;;;22.33;61.82
40490;BME280;26196;52.302;10.572;2023-08-17T19:55:56;101004.50;;;22.40;61.58
40490;BME280;26196;52.302;10.572;2023-08-17T19:59:56;101006.97;;;22.43;61.37
40490;BME280;26196;52.302;10.572;2023-08-17T20:03:57;100999.81;;;22.44;61.13
40490;BME280;26196;52.302;10.572;2023-08-17T20:07:57;100999.94;;;22.42;61.71
40490;BME280;26196;52.302;10.572;2023-08-17T20:11:58;100998.88;;;22.45;60.40
40490;BME280;26196;52.302;10.572;2023-08-17T20:15:58;101004.38;;;22.42;60.11
40490;BME280;26196;52.302;10.572;2023-08-17T20:19:58;101000.78;;;22.43;60.59
40490;BME280;26196;52.302;10.572;2023-08-17T20:24:09;101004.50;;;22.40;60.77
40490;BME280;26196;52.302;10.572;2023-08-17T20:28:09;100999.50;;;22.36;60.81
40490;BME280;26196;52.302;10.572;2023-08-17T20:32:10;101010.78;;;22.39;60.91
40490;BME280;26196;52.302;10.572;2023-08-17T20:36:10;101009.31;;;22.35;60.66
40490;BME280;26196;52.302;10.572;2023-08-17T20:40:13;101011.75;;;22.38;60.42
40490;BME280;26196;52.302;10.572;2023-08-17T20:44:13;100996.59;;;22.39;60.20
40490;BME280;26196;52.302;10.572;2023-08-17T20:48:14;100988.06;;;22.34;60.35
40490;BME280;26196;52.302;10.572;2023-08-17T20:52:14;100975.72;;;22.33;60.16
40490;BME280;26196;52.302;10.572;2023-08-17T20:56:15;100982.72;;;22.34;60.44
40490;BME280;26196;52.302;10.572;2023-08-17T21:00:15;100983.72;;;22.33;59.98